createdAt,value
2022-08-03T00:02:19.061Z,74.40
2022-08-03T00:04:47.817Z,74.34
2022-08-03T00:07:16.544Z,74.47
2022-08-03T00:09:44.810Z,74.40
2022-08-03T00:12:13.298Z,74.45
2022-08-03T00:14:42.470Z,74.53
2022-08-03T00:17:10.779Z,74.64
2022-08-03T00:19:38.975Z,74.70
2022-08-03T00:22:07.555Z,74.90
2022-08-03T00:24:35.971Z,75.00
2022-08-03T00:27:04.368Z,75.10
2022-08-03T00:29:33.090Z,75.11
2022-08-03T00:32:21.402Z,75.34
2022-08-03T00:34:57.519Z,75.29
2022-08-03T00:37:40.764Z,75.47
2022-08-03T00:40:13.923Z,75.57
2022-08-03T00:42:50.413Z,75.61
2022-08-03T00:45:19.400Z,75.71
2022-08-03T00:47:47.908Z,75.83
2022-08-03T00:50:17.523Z,75.83
2022-08-03T00:52:46.734Z,75.93
2022-08-03T00:55:15.320Z,75.89
2022-08-03T00:57:43.825Z,76.00
2022-08-03T01:00:15.092Z,76.12
2022-08-03T01:02:43.307Z,76.07
2022-08-03T01:05:12.317Z,76.16
2022-08-03T01:08:02.202Z,76.20
2022-08-03T01:10:37.343Z,76.21
2022-08-03T01:14:01.433Z,76.34
2022-08-03T01:16:14.555Z,76.26
2022-08-03T01:18:47.403Z,76.38
2022-08-03T01:21:20.724Z,76.57
2022-08-03T01:24:02.292Z,76.64
2022-08-03T01:26:55.275Z,76.78
2022-08-03T01:29:51.817Z,76.81
2022-08-03T01:32:52.446Z,77.04
2022-08-03T01:35:12.865Z,77.00
2022-08-03T01:37:43.807Z,76.82
2022-08-03T01:40:13.587Z,76.96
2022-08-03T01:42:42.698Z,76.94
2022-08-03T01:45:13.387Z,76.98
2022-08-03T01:47:42.518Z,76.98
2022-08-03T01:50:12.157Z,77.14
2022-08-03T01:52:42.112Z,77.22
2022-08-03T01:55:11.971Z,77.12
2022-08-03T01:58:05.439Z,77.36
2022-08-03T02:00:30.492Z,77.32
2022-08-03T02:02:58.981Z,77.36
2022-08-03T02:05:27.918Z,77.36
2022-08-03T02:07:57.159Z,77.28
2022-08-03T02:10:35.606Z,77.36
2022-08-03T02:13:07.037Z,77.38
2022-08-03T02:15:36.909Z,77.43
2022-08-03T02:18:07.716Z,77.63
2022-08-03T02:20:38.361Z,77.72
2022-08-03T02:23:07.221Z,77.77
2022-08-03T02:25:41.625Z,77.68
2022-08-03T02:28:13.487Z,77.82
2022-08-03T02:30:44.061Z,77.93
2022-08-03T02:33:17.234Z,77.95
2022-08-03T02:35:45.978Z,77.84
2022-08-03T02:38:15.306Z,77.99
2022-08-03T02:40:44.964Z,78.06
2022-08-03T02:43:18.415Z,78.16
2022-08-03T02:45:49.488Z,78.17
2022-08-03T02:48:20.455Z,78.23
2022-08-03T02:50:49.110Z,78.26
2022-08-03T02:53:18.239Z,78.34
2022-08-03T02:55:48.858Z,78.48
2022-08-03T02:58:20.715Z,78.58
2022-08-03T03:00:49.381Z,78.69
2022-08-03T03:03:17.917Z,78.67
2022-08-03T03:05:52.665Z,78.60
2022-08-03T03:08:28.608Z,78.71
2022-08-03T03:10:59.917Z,78.74
2022-08-03T03:13:29.353Z,78.81
2022-08-03T03:16:00.771Z,78.89
2022-08-03T03:18:29.738Z,78.91
2022-08-03T03:20:58.840Z,78.99
2022-08-03T03:23:28.503Z,79.10
2022-08-03T03:25:58.367Z,79.08
2022-08-03T03:28:27.462Z,79.24
2022-08-03T03:30:55.739Z,79.23
2022-08-03T03:33:24.223Z,79.40
2022-08-03T03:35:52.531Z,79.46
2022-08-03T03:38:21.083Z,79.58
2022-08-03T03:40:49.759Z,79.51
2022-08-03T03:43:18.396Z,79.63
2022-08-03T03:45:48.194Z,79.59
2022-08-03T03:48:16.612Z,79.62
2022-08-03T03:50:45.449Z,79.70
2022-08-03T03:53:14.352Z,79.69
2022-08-03T03:55:58.937Z,79.76
2022-08-03T03:58:32.217Z,79.89
2022-08-03T04:01:00.927Z,79.90
2022-08-03T04:03:29.895Z,79.88
2022-08-03T04:06:17.004Z,79.91
2022-08-03T04:09:03.691Z,80.03
2022-08-03T04:11:36.687Z,80.14
2022-08-03T04:14:08.311Z,80.22
2022-08-03T04:16:43.657Z,80.21
2022-08-03T04:19:18.550Z,80.46
2022-08-03T04:21:53.164Z,80.56
2022-08-03T04:24:26.885Z,80.74
2022-08-03T04:26:56.967Z,80.83
2022-08-03T04:29:26.751Z,80.71
2022-08-03T04:31:55.819Z,80.63
2022-08-03T04:34:24.230Z,80.76
2022-08-03T04:36:56.475Z,80.79
2022-08-03T04:39:26.464Z,80.76
2022-08-03T04:42:07.344Z,80.83
2022-08-03T04:44:39.208Z,80.73
2022-08-03T04:47:07.719Z,80.85
2022-08-03T04:49:37.229Z,80.86
2022-08-03T04:52:08.088Z,80.97
2022-08-03T04:54:41.278Z,80.94
2022-08-03T04:57:10.598Z,80.81
2022-08-03T04:59:56.841Z,80.69
2022-08-03T05:02:30.937Z,80.88
2022-08-03T05:04:59.359Z,80.86
2022-08-03T05:07:35.584Z,80.88
2022-08-03T05:10:15.900Z,80.69
2022-08-03T05:12:46.152Z,80.79
2022-08-03T05:15:15.407Z,80.74
2022-08-03T05:17:43.787Z,80.85
2022-08-03T05:20:12.450Z,80.74
2022-08-03T05:22:40.859Z,80.72
2022-08-03T05:25:09.628Z,80.57
2022-08-03T05:27:48.405Z,80.53
2022-08-03T05:30:32.424Z,80.41
2022-08-03T05:33:04.286Z,80.35
2022-08-03T05:36:02.640Z,80.25
2022-08-03T05:38:28.661Z,80.27
2022-08-03T05:41:20.029Z,80.34
2022-08-03T05:43:52.282Z,80.46
2022-08-03T05:46:21.089Z,80.28
2022-08-03T05:48:49.481Z,80.04
2022-08-03T05:51:18.246Z,79.89
2022-08-03T05:53:47.019Z,79.78
2022-08-03T05:56:16.690Z,79.67
2022-08-03T05:58:46.878Z,79.44
2022-08-03T06:01:15.663Z,79.36
2022-08-03T06:03:44.054Z,79.38
2022-08-03T06:06:12.486Z,79.36
2022-08-03T06:08:40.895Z,79.26
2022-08-03T06:11:09.629Z,79.30
2022-08-03T06:13:38.092Z,79.18
2022-08-03T06:16:06.826Z,79.08
2022-08-03T06:18:35.117Z,79.14
2022-08-03T06:21:11.047Z,79.19
2022-08-03T06:23:53.251Z,79.29
2022-08-03T06:26:28.012Z,79.21
2022-08-03T06:28:56.499Z,79.09
2022-08-03T06:31:32.342Z,78.70
2022-08-03T06:34:31.092Z,78.56
2022-08-03T06:36:50.763Z,78.46
2022-08-03T06:39:19.016Z,78.38
2022-08-03T06:41:47.373Z,78.08
2022-08-03T06:44:15.858Z,77.89
2022-08-03T06:46:44.325Z,77.83
2022-08-03T06:49:15.042Z,77.67
2022-08-03T06:52:04.476Z,77.47
2022-08-03T06:54:33.186Z,77.38
2022-08-03T06:57:01.940Z,77.24
2022-08-03T07:00:10.527Z,77.26
2022-08-03T07:02:19.346Z,77.10
2022-08-03T07:04:47.990Z,77.20
2022-08-03T07:07:16.902Z,76.85
2022-08-03T07:09:57.808Z,76.66
2022-08-03T07:12:28.815Z,76.55
2022-08-03T07:15:01.139Z,76.47
2022-08-03T07:17:38.081Z,76.46
2022-08-03T07:20:18.828Z,76.38
2022-08-03T07:22:50.323Z,76.15
2022-08-03T07:25:20.040Z,76.00
2022-08-03T07:27:51.893Z,75.86
2022-08-03T07:30:26.104Z,75.68
2022-08-03T07:32:57.773Z,75.64
2022-08-03T07:35:28.231Z,75.53
2022-08-03T07:37:56.680Z,75.25
2022-08-03T07:40:26.999Z,74.98
2022-08-03T07:43:02.914Z,74.73
2022-08-03T07:45:31.367Z,74.53
2022-08-03T07:47:59.565Z,74.35
2022-08-03T07:50:28.818Z,74.22
2022-08-03T07:52:59.234Z,73.97
2022-08-03T07:55:28.208Z,73.70
2022-08-03T07:58:04.169Z,73.19
2022-08-03T08:00:34.022Z,72.84
2022-08-03T08:03:02.831Z,72.60
2022-08-03T08:05:31.311Z,72.43
2022-08-03T08:08:07.730Z,72.07
2022-08-03T08:10:37.915Z,72.05
2022-08-03T08:13:09.677Z,72.03
2022-08-03T08:15:46.261Z,70.86
2022-08-03T08:18:17.372Z,70.53
2022-08-03T08:20:46.374Z,70.49
2022-08-03T08:23:42.799Z,69.69
2022-08-03T08:26:13.914Z,69.01
2022-08-03T08:28:49.022Z,69.05
2022-08-03T08:31:19.027Z,69.06
2022-08-03T08:34:03.499Z,68.99
2022-08-03T08:36:33.703Z,68.41
2022-08-03T08:39:03.101Z,67.55
2022-08-03T08:41:34.140Z,66.21
2022-08-03T08:44:04.050Z,66.20
2022-08-03T08:50:38.016Z,58.70
2022-08-03T08:53:17.344Z,59.91
2022-08-03T08:55:56.952Z,60.43
2022-08-03T08:58:31.094Z,59.96
2022-08-03T09:01:02.523Z,59.05
2022-08-03T09:03:33.963Z,54.68
2022-08-03T09:06:02.735Z,56.36
2022-08-03T09:08:32.141Z,56.25
2022-08-03T09:11:02.025Z,56.27
2022-08-03T09:13:30.910Z,56.86
2022-08-03T09:16:13.908Z,55.57
2022-08-03T09:18:43.319Z,54.23
2022-08-03T09:21:36.272Z,54.33
2022-08-03T09:24:13.031Z,53.78
2022-08-03T09:26:53.962Z,54.17
2022-08-03T09:29:23.926Z,52.38
2022-08-03T09:32:03.159Z,52.08
2022-08-03T09:34:32.090Z,51.57
2022-08-03T09:37:00.676Z,51.78
2022-08-03T09:39:41.802Z,52.68
2022-08-03T09:42:14.780Z,50.34
2022-08-03T09:45:04.218Z,51.45
2022-08-03T09:47:35.874Z,50.30
2022-08-03T09:50:07.335Z,49.44
2022-08-03T09:52:50.127Z,49.91
2022-08-03T09:56:05.127Z,50.36
2022-08-03T09:58:13.705Z,51.44
2022-08-03T10:00:56.814Z,51.77
2022-08-03T10:04:03.163Z,51.87
2022-08-03T10:06:30.126Z,51.68
2022-08-03T10:09:10.346Z,51.40
2022-08-03T10:11:42.109Z,51.07
2022-08-03T10:14:18.603Z,51.05
2022-08-03T10:16:58.336Z,50.79
2022-08-03T10:19:27.238Z,50.16
2022-08-03T10:21:57.730Z,49.33
2022-08-03T10:24:28.572Z,49.71
2022-08-03T10:27:03.501Z,50.17
2022-08-03T10:29:49.176Z,49.50
2022-08-03T10:32:21.947Z,49.71
2022-08-03T10:35:26.446Z,47.82
2022-08-03T10:37:59.269Z,48.25
2022-08-03T10:43:41.459Z,47.23
2022-08-03T10:46:15.836Z,45.32
2022-08-03T10:49:02.201Z,44.98
2022-08-03T10:51:48.460Z,43.28
2022-08-03T10:55:03.300Z,43.48
2022-08-03T10:58:05.742Z,42.01
2022-08-03T11:00:53.665Z,42.00
2022-08-03T11:03:22.146Z,41.14
2022-08-03T11:05:53.200Z,40.63
2022-08-03T11:08:30.540Z,40.09
2022-08-03T11:11:02.046Z,40.53
2022-08-03T11:13:33.391Z,40.99
2022-08-03T11:16:22.042Z,40.34
2022-08-03T11:19:01.156Z,38.97
2022-08-03T11:21:56.533Z,37.74
2022-08-03T11:24:57.509Z,39.83
2022-08-03T11:27:32.922Z,37.63
2022-08-03T11:30:06.137Z,37.25
2022-08-03T11:32:57.862Z,38.19
2022-08-03T11:35:28.897Z,39.08
2022-08-03T11:38:11.180Z,39.63
2022-08-03T11:40:43.239Z,39.95
2022-08-03T11:43:44.815Z,40.01
2022-08-03T11:46:28.555Z,38.95
2022-08-03T11:49:09.845Z,39.08
2022-08-03T11:51:40.539Z,38.64
2022-08-03T11:54:10.856Z,37.92
2022-08-03T11:56:46.589Z,37.55
2022-08-03T11:59:21.766Z,37.47
2022-08-03T12:01:50.974Z,37.59
2022-08-03T12:04:19.575Z,37.35
2022-08-03T12:07:00.603Z,36.87
2022-08-03T12:09:37.267Z,34.01
2022-08-03T12:12:21.464Z,34.32
2022-08-03T12:14:59.925Z,33.73
2022-08-03T12:17:35.186Z,34.41
2022-08-03T12:20:08.452Z,32.96
2022-08-03T12:22:46.155Z,33.62
2022-08-03T12:25:38.869Z,34.99
2022-08-03T12:28:36.479Z,34.43
2022-08-03T12:31:11.410Z,35.45
2022-08-03T12:33:54.448Z,34.93
2022-08-03T12:36:22.910Z,34.00
2022-08-03T12:38:59.228Z,34.49
2022-08-03T12:41:34.022Z,34.53
2022-08-03T12:44:03.659Z,34.02
2022-08-03T12:46:34.453Z,33.34
2022-08-03T12:49:08.671Z,33.20
2022-08-03T12:51:38.786Z,31.74
2022-08-03T12:54:07.269Z,30.06
2022-08-03T12:56:58.688Z,29.78
2022-08-03T13:00:59.935Z,31.38
2022-08-03T13:03:39.796Z,33.59
2022-08-03T13:06:15.951Z,34.27
2022-08-03T13:08:47.400Z,33.81
2022-08-03T13:11:52.518Z,34.20
2022-08-03T13:14:16.663Z,34.83
2022-08-03T13:16:50.377Z,35.07
2022-08-03T13:19:19.126Z,35.04
2022-08-03T13:22:01.690Z,35.23
2022-08-03T13:24:34.363Z,35.11
2022-08-03T13:28:12.469Z,34.73
2022-08-03T13:30:01.816Z,34.56
2022-08-03T13:32:30.804Z,33.92
2022-08-03T13:35:02.023Z,34.01
2022-08-03T13:37:35.506Z,33.60
2022-08-03T13:40:08.665Z,33.52
2022-08-03T13:43:02.019Z,33.21
2022-08-03T13:49:06.841Z,33.72
2022-08-03T13:52:02.963Z,34.70
2022-08-03T13:54:41.739Z,35.23
2022-08-03T13:58:11.637Z,36.12
2022-08-03T14:00:27.855Z,36.75
2022-08-03T14:03:15.354Z,36.91
2022-08-03T14:05:44.071Z,36.87
2022-08-03T14:08:12.763Z,37.23
2022-08-03T14:10:43.388Z,37.52
2022-08-03T14:13:12.423Z,37.52
2022-08-03T14:15:41.177Z,38.21
2022-08-03T14:18:12.998Z,38.52
2022-08-03T14:20:50.305Z,38.86
2022-08-03T14:23:22.761Z,39.52
2022-08-03T14:25:52.926Z,39.60
2022-08-03T14:28:23.568Z,40.25
2022-08-03T14:30:53.518Z,40.35
2022-08-03T14:33:22.068Z,40.46
2022-08-03T14:35:51.520Z,41.32
2022-08-03T14:38:20.180Z,41.30
2022-08-03T14:40:49.144Z,40.96
2022-08-03T14:43:18.121Z,40.29
2022-08-03T14:45:46.643Z,40.19
2022-08-03T14:50:31.010Z,39.43
2022-08-03T14:51:05.095Z,37.76
2022-08-03T14:53:34.705Z,36.67
2022-08-03T14:56:07.792Z,36.30
2022-08-03T14:58:39.043Z,35.73
2022-08-03T15:02:03.056Z,34.46
2022-08-03T15:03:56.255Z,34.27
2022-08-03T15:06:24.875Z,34.10
2022-08-03T15:09:21.524Z,34.47
2022-08-03T15:11:44.535Z,34.41
2022-08-03T15:14:14.720Z,35.06
2022-08-03T15:16:46.077Z,34.96
2022-08-03T15:20:03.567Z,34.91
2022-08-03T15:22:03.816Z,34.51
2022-08-03T15:24:32.352Z,34.50
2022-08-03T15:27:01.186Z,34.45
2022-08-03T15:30:07.793Z,34.33
2022-08-03T15:32:23.647Z,34.93
2022-08-03T15:34:55.276Z,35.92
2022-08-03T15:37:24.956Z,36.38
2022-08-03T15:39:59.089Z,36.30
2022-08-03T15:42:29.364Z,35.79
2022-08-03T15:44:58.247Z,35.53
2022-08-03T15:47:26.593Z,35.94
2022-08-03T15:49:55.357Z,35.84
2022-08-03T15:52:23.962Z,35.61
2022-08-03T15:54:52.221Z,35.91
2022-08-03T15:57:20.841Z,36.48
2022-08-03T15:59:49.556Z,37.08
2022-08-03T16:02:17.883Z,36.88
2022-08-03T16:04:46.219Z,37.14
2022-08-03T16:07:15.178Z,37.70
2022-08-03T16:09:44.071Z,38.48
2022-08-03T16:12:15.772Z,39.25
2022-08-03T16:14:52.773Z,39.66
2022-08-03T16:17:23.771Z,39.79
2022-08-03T16:19:54.947Z,40.10
2022-08-03T16:22:23.892Z,40.73
2022-08-03T16:24:52.754Z,41.04
2022-08-03T16:27:37.593Z,41.33
2022-08-03T16:30:12.815Z,41.41
2022-08-03T16:32:41.157Z,41.89
2022-08-03T16:35:19.200Z,41.95
2022-08-03T16:37:56.296Z,42.83
2022-08-03T16:40:25.622Z,43.35
2022-08-03T16:42:54.513Z,43.34
2022-08-03T16:45:22.785Z,43.46
2022-08-03T16:48:01.449Z,43.61
2022-08-03T16:50:35.388Z,44.00
2022-08-03T16:53:06.264Z,44.06
2022-08-03T16:55:48.646Z,44.12
2022-08-03T16:58:34.335Z,44.04
2022-08-03T17:01:21.846Z,44.17
2022-08-03T17:04:03.675Z,44.33
2022-08-03T17:06:36.126Z,44.27
2022-08-03T17:09:10.075Z,44.46
2022-08-03T17:11:44.180Z,44.92
2022-08-03T17:14:16.915Z,45.42
2022-08-03T17:16:52.223Z,45.62
2022-08-03T17:19:23.492Z,45.64
2022-08-03T17:21:58.961Z,45.48
2022-08-03T17:24:32.243Z,45.49
2022-08-03T17:27:01.113Z,45.64
2022-08-03T17:29:30.105Z,46.33
2022-08-03T17:31:58.689Z,46.60
2022-08-03T17:34:26.963Z,47.02
2022-08-03T17:37:04.512Z,47.30
2022-08-03T17:39:58.710Z,47.82
2022-08-03T17:42:30.441Z,48.39
2022-08-03T17:45:02.370Z,48.72
2022-08-03T17:47:42.421Z,48.75
2022-08-03T17:50:24.211Z,49.04
2022-08-03T17:53:07.569Z,48.80
2022-08-03T17:55:56.822Z,48.59
2022-08-03T17:58:41.651Z,48.53
2022-08-03T18:04:30.251Z,48.65
2022-08-03T18:07:11.976Z,48.68
2022-08-03T18:10:05.670Z,48.79
2022-08-03T18:12:39.531Z,49.01
2022-08-03T18:15:20.802Z,49.33
2022-08-03T18:17:55.093Z,49.81
2022-08-03T18:20:34.813Z,50.16
2022-08-03T18:23:10.921Z,50.41
2022-08-03T18:25:58.093Z,50.56
2022-08-03T18:32:00.445Z,50.82
2022-08-03T18:34:32.128Z,50.89
2022-08-03T18:36:56.078Z,50.95
2022-08-03T18:39:25.421Z,51.44
2022-08-03T18:41:54.375Z,51.56
2022-08-03T18:44:53.044Z,51.59
2022-08-03T18:47:26.723Z,51.66
2022-08-03T18:50:19.662Z,51.76
2022-08-03T18:52:54.712Z,52.13
2022-08-03T18:55:33.602Z,52.14
2022-08-03T18:58:17.533Z,52.26
2022-08-03T19:00:56.557Z,52.43
2022-08-03T19:03:42.951Z,52.79
2022-08-03T19:06:19.646Z,53.62
2022-08-03T19:09:00.379Z,53.67
2022-08-03T19:12:12.672Z,53.81
2022-08-03T19:14:30.349Z,54.18
2022-08-03T19:17:05.851Z,54.58
2022-08-03T19:19:43.501Z,54.70
2022-08-03T19:22:19.615Z,54.87
2022-08-03T19:24:48.871Z,54.86
2022-08-03T19:27:18.142Z,55.01
2022-08-03T19:32:39.041Z,55.45
2022-08-03T19:35:19.079Z,55.72
2022-08-03T19:37:56.942Z,56.11
2022-08-03T19:40:32.494Z,56.52
2022-08-03T19:43:07.109Z,56.80
2022-08-03T19:48:29.643Z,57.63
2022-08-03T19:50:59.103Z,58.33
2022-08-03T19:53:35.316Z,58.15
2022-08-03T19:56:06.126Z,58.33
2022-08-03T19:58:34.663Z,58.70
2022-08-03T20:01:21.107Z,58.86
2022-08-03T20:03:51.830Z,59.27
2022-08-03T20:06:23.159Z,59.31
2022-08-03T20:08:52.630Z,59.37
2022-08-03T20:11:28.626Z,59.50
2022-08-03T20:13:59.744Z,59.53
2022-08-03T20:16:28.023Z,59.56
2022-08-03T20:18:56.304Z,59.71
2022-08-03T20:21:25.615Z,60.01
2022-08-03T20:24:03.417Z,60.23
2022-08-03T20:26:53.253Z,60.40
2022-08-03T20:29:42.562Z,60.61
2022-08-03T20:32:17.980Z,60.81
2022-08-03T20:34:46.259Z,61.05
2022-08-03T20:37:18.322Z,60.93
2022-08-03T20:39:48.311Z,60.90
2022-08-03T20:42:21.472Z,60.89
2022-08-03T20:45:06.150Z,60.91
2022-08-03T20:47:36.004Z,61.09
2022-08-03T20:50:07.593Z,60.98
2022-08-03T20:52:43.784Z,60.94
2022-08-03T20:55:20.215Z,60.89
2022-08-03T20:58:07.730Z,60.98
2022-08-03T21:00:36.662Z,60.86
2022-08-03T21:03:06.168Z,60.89
2022-08-03T21:05:47.735Z,60.81
2022-08-03T21:08:18.699Z,60.84
2022-08-03T21:10:48.554Z,60.89
2022-08-03T21:12:58.148Z,50.86
2022-08-03T21:13:05.312Z,48.52
2022-08-03T21:13:09.487Z,55.20
2022-08-03T21:13:10.710Z,57.31
2022-08-03T21:16:11.630Z,60.91
2022-08-03T21:18:47.045Z,60.85
2022-08-03T21:21:17.749Z,60.83
2022-08-03T21:23:50.061Z,60.72
2022-08-03T21:26:19.937Z,60.81
2022-08-03T21:28:52.811Z,60.90
2022-08-03T21:31:24.463Z,61.01
2022-08-03T21:33:56.517Z,61.23
2022-08-03T21:36:26.871Z,61.00
2022-08-03T21:38:57.234Z,61.25
2022-08-03T21:41:27.927Z,61.28
2022-08-03T21:43:56.297Z,61.16
2022-08-03T21:46:25.892Z,61.23
2022-08-03T21:50:04.136Z,61.16
2022-08-03T21:51:49.899Z,61.29
2022-08-03T21:54:18.877Z,61.33
2022-08-03T21:56:48.410Z,61.30
2022-08-03T21:59:19.170Z,61.35
2022-08-03T22:01:51.532Z,61.41
2022-08-03T22:04:38.067Z,61.53
2022-08-03T22:07:13.069Z,61.48
2022-08-03T22:09:51.054Z,61.48
2022-08-03T22:12:24.813Z,61.50
2022-08-03T22:15:00.544Z,61.39
2022-08-03T22:17:54.957Z,61.46
2022-08-03T22:20:22.054Z,61.35
2022-08-03T22:22:55.284Z,61.35
2022-08-03T22:25:28.612Z,61.44
2022-08-03T22:27:59.701Z,61.45
2022-08-03T22:30:28.805Z,61.43
2022-08-03T22:32:57.792Z,61.53
2022-08-03T22:35:28.157Z,61.52
2022-08-03T22:37:58.250Z,61.62
2022-08-03T22:40:27.538Z,61.83
2022-08-03T22:42:57.067Z,61.87
2022-08-03T22:46:07.126Z,61.97
2022-08-03T22:48:17.406Z,62.03
2022-08-03T22:50:46.292Z,62.18
2022-08-03T22:53:19.930Z,62.33
2022-08-03T22:55:49.684Z,62.44
2022-08-03T22:58:20.325Z,62.53
2022-08-03T23:00:53.938Z,62.63
2022-08-03T23:03:25.189Z,62.77
2022-08-03T23:06:01.277Z,62.89
2022-08-03T23:08:34.281Z,63.19
2022-08-03T23:11:08.119Z,63.48
2022-08-03T23:13:37.073Z,63.90
2022-08-03T23:16:06.487Z,64.03
2022-08-03T23:18:37.869Z,64.05
2022-08-03T23:21:11.496Z,64.24
2022-08-03T23:23:44.447Z,64.47
2022-08-03T23:26:14.183Z,64.56
2022-08-03T23:28:46.027Z,65.25
2022-08-03T23:31:15.810Z,65.01
2022-08-03T23:33:45.318Z,65.39
2022-08-03T23:36:31.023Z,65.41
2022-08-03T23:39:03.030Z,65.55
2022-08-03T23:41:32.923Z,65.52
2022-08-03T23:44:01.733Z,65.51
2022-08-03T23:46:33.124Z,65.63
2022-08-03T23:49:01.540Z,65.84
2022-08-03T23:51:36.649Z,65.99
2022-08-03T23:54:19.511Z,66.14
2022-08-03T23:56:54.129Z,66.16
2022-08-03T23:59:31.090Z,66.39
